Time;durP1;ratioP1;P1;durP2;ratioP2;P2;SDS_P1;SDS_P2;PMS_P1;PMS_P2;Temp;Humidity;BMP_temperature;BMP_pressure;BME280_temperature;BME280_humidity;BME280_pressure;Samples;Min_cycle;Max_cycle;Signal;HPM_P1;HPM_P2
2021/05/30 00:05:43;;;;;;;2.93;0.80;;;25.10;99.90;;;;;;5804200;23;20256;-96
2021/05/30 00:27:09;;;;;;;0.80;0.80;;;25.40;99.90;;;;;;5283405;23;20225;-96
2021/05/30 00:29:53;;;;;;;1.93;0.97;;;25.50;99.90;;;;;;5016979;28;20206;-96
2021/05/30 00:32:43;;;;;;;1.73;0.80;;;25.40;99.90;;;;;;5049144;28;20201;-96
2021/05/30 00:41:10;;;;;;;2.43;1.10;;;25.20;99.90;;;;;;5527057;23;20255;-96
2021/05/30 00:43:49;;;;;;;1.70;0.97;;;25.20;99.90;;;;;;5034636;28;20190;-96
2021/05/30 00:46:21;;;;;;;1.97;0.90;;;25.30;99.90;;;;;;5016513;28;20198;-96
2021/05/30 00:48:54;;;;;;;2.50;1.00;;;25.40;99.90;;;;;;5011941;28;20216;-93
2021/05/30 00:51:29;;;;;;;2.03;1.00;;;25.80;99.90;;;;;;5030675;28;20725;-92
2021/05/30 00:53:59;;;;;;;3.10;1.00;;;26.20;99.90;;;;;;5013878;28;20318;-93
2021/05/30 00:56:31;;;;;;;1.90;0.77;;;26.40;99.90;;;;;;5013550;28;20720;-94
2021/05/30 00:59:04;;;;;;;1.23;1.10;;;27.20;99.90;;;;;;5010966;28;20228;-91
2021/05/30 01:01:35;;;;;;;3.90;0.90;;;26.80;99.90;;;;;;5016582;28;20244;-91
2021/05/30 01:04:05;;;;;;;1.90;1.00;;;26.70;99.90;;;;;;5026994;28;20212;-92
2021/05/30 01:06:37;;;;;;;3.50;1.37;;;27.40;99.90;;;;;;5018586;28;20214;-92
2021/05/30 01:09:07;;;;;;;4.37;1.10;;;27.00;99.90;;;;;;5024886;28;20201;-92
2021/05/30 01:11:38;;;;;;;2.60;1.00;;;27.40;99.90;;;;;;5019127;28;20237;-91
2021/05/30 01:14:13;;;;;;;2.47;0.97;;;27.50;99.90;;;;;;5011451;28;20201;-92
2021/05/30 01:16:44;;;;;;;1.17;0.83;;;27.00;99.90;;;;;;5017130;28;20672;-91
2021/05/30 01:19:17;;;;;;;2.80;1.20;;;27.10;99.90;;;;;;5037227;28;20240;-91
2021/05/30 01:21:48;;;;;;;1.87;1.07;;;26.60;99.90;;;;;;5009926;28;20650;-91
2021/05/30 01:24:21;;;;;;;3.97;1.00;;;27.00;99.90;;;;;;5002210;28;20304;-91
2021/05/30 01:26:53;;;;;;;3.03;1.00;;;27.30;99.90;;;;;;5017156;28;20292;-90
2021/05/30 01:29:23;;;;;;;1.47;1.00;;;27.30;99.90;;;;;;5016270;28;20251;-90
2021/05/30 01:31:54;;;;;;;1.93;0.90;;;27.50;99.60;;;;;;5025911;28;20288;-90
2021/05/30 01:34:24;;;;;;;3.10;1.40;;;27.80;99.20;;;;;;5016008;28;20212;-90
2021/05/30 01:36:55;;;;;;;2.10;0.93;;;27.40;99.80;;;;;;5019087;28;20210;-91
2021/05/30 01:39:27;;;;;;;1.97;1.00;;;26.80;99.90;;;;;;4997809;28;20210;-92
2021/05/30 01:41:57;;;;;;;4.30;1.03;;;27.40;99.10;;;;;;5016558;28;20695;-91
2021/05/30 01:44:28;;;;;;;2.80;1.17;;;27.50;99.70;;;;;;5017212;28;20232;-91
2021/05/30 02:43:36;;;;;;;2.73;1.00;;;22.20;99.90;;;;;;5238945;22;20295;-96
2021/05/30 02:51:38;;;;;;;22.63;2.57;;;21.10;99.90;;;;;;5972352;23;20298;-92
2021/05/30 02:54:09;;;;;;;1.97;0.90;;;20.70;99.90;;;;;;5029794;28;20310;-94
2021/05/30 02:56:39;;;;;;;2.80;1.10;;;20.50;99.90;;;;;;5017519;28;20244;-94
2021/05/30 02:59:13;;;;;;;1.43;0.90;;;20.50;99.90;;;;;;5000311;28;20257;-94
2021/05/30 03:01:44;;;;;;;1.50;1.00;;;20.50;99.90;;;;;;5024112;28;20201;-93
2021/05/30 03:04:15;;;;;;;1.70;1.30;;;20.40;99.90;;;;;;5016437;28;20309;-93
2021/05/30 03:06:46;;;;;;;11.97;1.50;;;20.10;99.90;;;;;;5007688;28;20260;-93
2021/05/30 03:09:17;;;;;;;2.27;1.00;;;19.90;99.90;;;;;;4997798;28;20306;-94
2021/05/30 03:11:50;;;;;;;4.17;1.10;;;19.80;99.90;;;;;;5008910;28;20240;-93
2021/05/30 03:14:23;;;;;;;3.37;1.20;;;19.60;99.90;;;;;;5016081;28;20259;-93
2021/05/30 03:16:53;;;;;;;2.93;1.13;;;19.60;99.90;;;;;;5000157;28;20289;-93
2021/05/30 03:19:24;;;;;;;1.87;1.03;;;19.40;99.90;;;;;;5000507;28;20238;-92
2021/05/30 03:21:54;;;;;;;2.53;1.30;;;19.30;99.90;;;;;;5020337;28;20628;-93
2021/05/30 03:24:24;;;;;;;3.73;1.37;;;19.20;99.90;;;;;;5031833;28;20213;-92
2021/05/30 03:26:54;;;;;;;2.77;1.60;;;19.20;99.90;;;;;;5034464;28;20198;-93
2021/05/30 03:29:29;;;;;;;3.73;1.77;;;19.00;99.90;;;;;;5017818;28;20234;-92
2021/05/30 03:31:59;;;;;;;2.00;1.60;;;18.90;99.90;;;;;;5037538;28;20181;-91
2021/05/30 03:34:30;;;;;;;9.47;2.27;;;18.80;99.90;;;;;;5035739;28;20194;-93
2021/05/30 03:37:01;;;;;;;5.53;1.77;;;18.70;99.90;;;;;;5035429;28;20265;-92
2021/05/30 03:39:32;;;;;;;4.07;1.30;;;18.50;99.90;;;;;;5015923;28;20658;-94
2021/05/30 03:42:08;;;;;;;2.87;1.50;;;18.40;99.90;;;;;;5015817;28;20304;-93
2021/05/30 03:44:41;;;;;;;2.83;1.40;;;18.30;99.90;;;;;;5015214;28;20688;-92
2021/05/30 03:47:13;;;;;;;2.13;1.13;;;18.20;99.90;;;;;;4998723;28;20217;-92
2021/05/30 03:49:43;;;;;;;1.60;1.10;;;18.00;99.90;;;;;;5015403;28;20233;-92
2021/05/30 03:52:14;;;;;;;3.03;1.40;;;17.80;99.90;;;;;;4995278;28;20273;-92
2021/05/30 03:54:46;;;;;;;2.97;1.13;;;17.70;99.90;;;;;;5005743;28;20288;-92
2021/05/30 03:57:17;;;;;;;2.87;1.27;;;17.60;99.90;;;;;;5014497;28;20264;-92
2021/05/30 03:59:49;;;;;;;1.90;1.30;;;17.40;99.90;;;;;;5014967;28;20273;-91
2021/05/30 04:02:19;;;;;;;4.03;1.60;;;17.30;99.90;;;;;;4997817;28;20263;-92
2021/05/30 04:04:49;;;;;;;1.93;1.30;;;17.10;99.90;;;;;;5009441;28;20201;-91
2021/05/30 04:07:20;;;;;;;2.97;1.20;;;17.10;99.90;;;;;;5015671;28;20233;-93
2021/05/30 04:09:51;;;;;;;3.47;1.40;;;16.90;99.90;;;;;;4987573;28;20301;-93
2021/05/30 04:12:22;;;;;;;5.10;1.47;;;16.80;99.90;;;;;;5034576;28;20232;-92
2021/05/30 04:14:54;;;;;;;3.00;1.40;;;16.70;99.90;;;;;;5024835;28;20236;-92
2021/05/30 04:17:24;;;;;;;2.80;1.30;;;16.60;99.90;;;;;;5015289;28;20237;-93
2021/05/30 04:19:58;;;;;;;2.53;1.47;;;16.50;99.90;;;;;;5015047;28;20309;-92
2021/05/30 04:22:28;;;;;;;2.50;1.20;;;16.40;99.90;;;;;;5022559;28;20308;-92
2021/05/30 04:24:59;;;;;;;4.03;1.03;;;16.30;99.90;;;;;;5033841;28;20647;-93
2021/05/30 04:27:29;;;;;;;2.30;1.40;;;16.20;99.90;;;;;;5016792;28;20305;-92
2021/05/30 04:30:05;;;;;;;2.77;1.30;;;16.20;99.90;;;;;;5022579;28;20225;-90
2021/05/30 04:32:35;;;;;;;3.37;1.50;;;16.10;99.90;;;;;;4998034;28;20211;-93
2021/05/30 04:35:08;;;;;;;1.70;1.40;;;16.00;99.90;;;;;;5001013;28;20226;-93
2021/05/30 04:37:38;;;;;;;3.13;1.40;;;16.00;99.90;;;;;;5001262;28;20610;-95
2021/05/30 04:40:13;;;;;;;1.60;1.50;;;15.90;99.90;;;;;;5010575;28;20271;-95
2021/05/30 04:42:44;;;;;;;2.07;1.53;;;15.80;99.90;;;;;;5016107;28;20210;-95
2021/05/30 04:45:19;;;;;;;2.60;1.50;;;15.70;99.90;;;;;;5014497;28;20244;-95
2021/05/30 04:47:52;;;;;;;2.40;1.50;;;15.70;99.90;;;;;;5020619;28;20275;-94
2021/05/30 04:50:23;;;;;;;1.67;1.30;;;15.60;99.90;;;;;;5028447;28;20259;-94
2021/05/30 04:52:53;;;;;;;3.07;1.47;;;15.60;99.90;;;;;;5019079;28;20264;-94
2021/05/30 04:55:24;;;;;;;1.50;1.40;;;15.50;99.90;;;;;;5014558;28;20197;-95
2021/05/30 04:57:55;;;;;;;1.60;1.30;;;15.50;99.90;;;;;;5034365;28;20205;-94
2021/05/30 05:00:27;;;;;;;1.67;1.17;;;15.50;99.90;;;;;;5023142;23;20229;-93
2021/05/30 05:02:59;;;;;;;2.00;1.43;;;15.40;99.90;;;;;;5007520;28;20209;-93
2021/05/30 05:05:30;;;;;;;2.43;1.17;;;15.40;99.90;;;;;;5004302;28;20974;-93
2021/05/30 05:08:00;;;;;;;4.17;1.27;;;15.30;99.90;;;;;;4995884;28;20233;-93
2021/05/30 05:10:31;;;;;;;2.20;1.43;;;15.30;99.90;;;;;;4988348;28;20297;-93
2021/05/30 05:13:02;;;;;;;2.23;1.30;;;15.20;99.90;;;;;;4995699;28;20260;-94
2021/05/30 05:15:34;;;;;;;2.57;1.50;;;15.20;99.90;;;;;;4990530;28;20225;-93
2021/05/30 05:18:13;;;;;;;3.20;1.70;;;15.20;99.90;;;;;;4995820;28;20266;-93
2021/05/30 05:20:44;;;;;;;1.93;1.40;;;15.20;99.90;;;;;;4979080;28;20721;-92
2021/05/30 05:23:16;;;;;;;3.63;1.67;;;15.10;99.90;;;;;;4979958;28;20235;-92
2021/05/30 05:25:49;;;;;;;3.00;1.77;;;15.10;99.90;;;;;;4998272;28;20553;-93
2021/05/30 05:28:20;;;;;;;2.10;1.80;;;15.00;99.90;;;;;;4998687;28;20222;-92
2021/05/30 05:30:54;;;;;;;3.47;2.07;;;15.00;99.90;;;;;;4998519;28;20297;-92
2021/05/30 05:33:24;;;;;;;3.70;2.20;;;14.90;99.90;;;;;;5003208;28;20230;-92
2021/05/30 05:35:54;;;;;;;3.67;2.13;;;14.90;99.90;;;;;;5005572;28;20203;-92
2021/05/30 05:38:25;;;;;;;3.20;2.20;;;14.80;99.90;;;;;;4986438;28;20334;-93
2021/05/30 05:40:55;;;;;;;3.77;1.90;;;14.80;99.90;;;;;;4982232;28;20293;-90
2021/05/30 05:43:26;;;;;;;4.07;1.90;;;14.80;99.90;;;;;;4998294;28;20687;-93
2021/05/30 05:45:59;;;;;;;2.67;1.80;;;14.80;99.90;;;;;;4985550;28;20226;-93
2021/05/30 05:48:30;;;;;;;2.90;1.87;;;14.70;99.90;;;;;;4981924;28;20231;-93
2021/05/30 05:51:01;;;;;;;2.70;1.60;;;14.70;99.90;;;;;;4986208;28;20282;-92
2021/05/30 05:53:32;;;;;;;2.93;1.60;;;14.60;99.90;;;;;;4979925;28;20210;-94
2021/05/30 05:56:03;;;;;;;1.50;1.40;;;14.50;99.90;;;;;;5011325;28;20271;-93
2021/05/30 05:58:34;;;;;;;3.40;1.80;;;14.50;99.90;;;;;;5002658;28;20316;-93
2021/05/30 06:01:06;;;;;;;2.17;1.67;;;14.40;99.90;;;;;;5015100;28;20213;-93
2021/05/30 06:03:37;;;;;;;1.93;1.30;;;14.40;99.90;;;;;;5020653;28;20288;-93
2021/05/30 06:06:07;;;;;;;1.47;1.30;;;14.40;99.90;;;;;;5020259;28;20301;-93
2021/05/30 06:08:39;;;;;;;2.20;1.43;;;14.30;99.90;;;;;;5027027;28;20229;-93
2021/05/30 06:11:10;;;;;;;3.03;1.33;;;14.30;99.90;;;;;;5027235;28;20198;-92
2021/05/30 06:13:41;;;;;;;2.17;1.50;;;14.20;99.90;;;;;;5026923;28;20213;-92
2021/05/30 06:16:13;;;;;;;2.93;1.53;;;14.20;99.90;;;;;;5027627;28;20228;-93
2021/05/30 06:18:45;;;;;;;3.60;1.63;;;14.20;99.90;;;;;;5003854;28;20333;-93
2021/05/30 06:21:16;;;;;;;1.40;1.30;;;14.10;99.90;;;;;;5021435;28;20265;-92
2021/05/30 06:23:47;;;;;;;1.77;1.43;;;14.10;99.90;;;;;;5021483;28;20296;-95
2021/05/30 06:26:18;;;;;;;2.10;1.33;;;14.00;99.90;;;;;;5035170;28;20220;-92
2021/05/30 06:28:49;;;;;;;2.30;1.20;;;14.00;99.90;;;;;;5031040;28;20217;-93
2021/05/30 06:31:23;;;;;;;3.53;1.33;;;14.00;99.90;;;;;;5027367;28;20226;-92
2021/05/30 06:33:54;;;;;;;2.10;1.20;;;13.90;99.90;;;;;;5025003;28;20287;-93
2021/05/30 06:36:24;;;;;;;2.17;1.30;;;13.80;99.90;;;;;;5021946;28;20557;-92
2021/05/30 06:38:55;;;;;;;4.30;1.20;;;13.80;99.90;;;;;;5016733;28;20233;-92
2021/05/30 06:41:27;;;;;;;1.50;1.20;;;13.80;99.90;;;;;;5016494;28;20288;-92
2021/05/30 06:43:58;;;;;;;2.67;1.60;;;13.70;99.90;;;;;;5018993;28;20297;-93
2021/05/30 06:46:39;;;;;;;2.33;1.57;;;13.60;99.90;;;;;;5025597;28;20222;-92
2021/05/30 06:49:09;;;;;;;1.50;1.23;;;13.60;99.90;;;;;;5022779;28;20209;-93
2021/05/30 06:51:40;;;;;;;2.27;1.30;;;13.60;99.90;;;;;;5032803;28;20221;-92
2021/05/30 06:54:12;;;;;;;3.40;1.40;;;13.50;99.90;;;;;;5027710;28;20205;-92
2021/05/30 06:56:45;;;;;;;1.80;1.40;;;13.50;99.90;;;;;;5032121;28;20205;-92
2021/05/30 06:59:19;;;;;;;2.43;1.40;;;13.50;99.90;;;;;;5028655;28;20238;-93
2021/05/30 07:01:52;;;;;;;2.67;1.47;;;13.40;99.90;;;;;;5032093;28;20217;-93
2021/05/30 07:04:26;;;;;;;3.20;1.40;;;13.40;99.90;;;;;;5033001;28;20209;-91
2021/05/30 07:06:57;;;;;;;2.30;1.37;;;13.40;99.90;;;;;;5027285;28;20217;-92
2021/05/30 07:09:28;;;;;;;2.77;1.60;;;13.30;99.90;;;;;;5025684;28;20205;-93
2021/05/30 07:11:59;;;;;;;2.03;1.50;;;13.30;99.90;;;;;;5029129;28;20205;-93
2021/05/30 07:14:43;;;;;;;2.60;1.50;;;13.30;99.90;;;;;;5035669;28;20200;-93
2021/05/30 07:17:16;;;;;;;1.77;1.30;;;13.20;99.90;;;;;;5029329;28;20196;-93
2021/05/30 07:19:48;;;;;;;2.57;1.63;;;13.20;99.90;;;;;;5016498;28;20308;-92
2021/05/30 07:22:18;;;;;;;1.97;1.57;;;13.10;99.90;;;;;;5006231;28;20225;-93
2021/05/30 07:24:49;;;;;;;3.20;1.60;;;13.10;99.90;;;;;;5017675;28;20217;-92
2021/05/30 07:27:20;;;;;;;2.43;1.57;;;13.00;99.90;;;;;;5003622;28;20242;-91
2021/05/30 07:29:50;;;;;;;7.93;1.80;;;13.00;99.90;;;;;;5010236;28;20249;-92
2021/05/30 07:32:21;;;;;;;5.53;1.80;;;13.00;99.90;;;;;;5009335;28;20206;-92
2021/05/30 07:34:52;;;;;;;3.37;1.60;;;12.90;99.90;;;;;;5017842;28;20260;-92
2021/05/30 07:37:23;;;;;;;2.20;1.50;;;12.90;99.90;;;;;;5018950;28;20748;-92
2021/05/30 07:39:54;;;;;;;2.73;1.67;;;12.90;99.90;;;;;;5015280;28;20230;-92
2021/05/30 07:42:24;;;;;;;2.23;1.67;;;12.90;99.90;;;;;;5015734;28;20652;-92
2021/05/30 07:44:55;;;;;;;2.10;1.73;;;12.90;99.90;;;;;;5001269;28;20293;-92
2021/05/30 07:47:27;;;;;;;1.97;1.60;;;12.80;99.90;;;;;;4995692;28;20568;-93
2021/05/30 07:49:58;;;;;;;2.37;1.70;;;12.80;99.90;;;;;;5006036;28;20654;-92
2021/05/30 07:52:28;;;;;;;2.80;1.40;;;12.70;99.90;;;;;;5014698;28;20209;-92
2021/05/30 07:54:59;;;;;;;3.00;1.53;;;12.70;99.90;;;;;;5014134;28;20225;-93
2021/05/30 07:57:29;;;;;;;4.17;1.60;;;12.60;99.90;;;;;;5013172;28;20214;-93
2021/05/30 08:00:01;;;;;;;3.03;1.80;;;12.70;99.90;;;;;;4996267;28;20225;-92
2021/05/30 08:02:32;;;;;;;3.17;1.40;;;12.60;99.90;;;;;;5014654;28;20202;-92
2021/05/30 08:05:03;;;;;;;3.07;1.10;;;12.60;99.90;;;;;;5014386;28;20202;-93
2021/05/30 08:07:34;;;;;;;2.73;1.53;;;12.60;99.90;;;;;;5015652;28;20263;-93
2021/05/30 08:10:07;;;;;;;1.77;1.60;;;12.50;99.90;;;;;;5017749;28;20213;-93
2021/05/30 08:12:37;;;;;;;1.67;1.23;;;12.50;99.90;;;;;;5002386;28;20225;-92
2021/05/30 08:15:10;;;;;;;2.70;1.93;;;12.50;99.90;;;;;;5037138;28;20196;-92
2021/05/30 08:17:43;;;;;;;3.83;1.60;;;12.40;99.90;;;;;;5019405;28;20240;-92
2021/05/30 08:20:17;;;;;;;2.70;1.70;;;12.40;99.90;;;;;;5019464;28;20245;-93
2021/05/30 08:22:47;;;;;;;3.87;1.80;;;12.40;99.90;;;;;;5019186;28;20622;-92
2021/05/30 08:25:19;;;;;;;2.70;1.70;;;12.40;99.90;;;;;;5018039;28;20251;-93
2021/05/30 08:27:51;;;;;;;3.30;2.17;;;12.30;99.90;;;;;;5018665;28;20223;-92
2021/05/30 08:30:23;;;;;;;3.60;2.17;;;12.40;99.90;;;;;;5014426;28;20228;-92
2021/05/30 08:32:58;;;;;;;2.80;2.00;;;12.30;99.90;;;;;;5019279;28;20205;-92
2021/05/30 08:35:30;;;;;;;3.13;2.40;;;12.20;99.90;;;;;;4998416;28;20214;-92
2021/05/30 08:38:00;;;;;;;3.20;2.90;;;12.20;99.90;;;;;;5000415;28;20308;-92
2021/05/30 08:40:31;;;;;;;4.17;3.53;;;12.10;99.90;;;;;;5000183;28;20242;-92
2021/05/30 08:43:02;;;;;;;6.13;4.53;;;12.10;99.90;;;;;;5000512;28;20234;-92
2021/05/30 08:45:32;;;;;;;7.03;4.87;;;12.10;99.90;;;;;;4999739;28;20234;-92
2021/05/30 08:48:06;;;;;;;5.60;3.67;;;12.10;99.90;;;;;;5004398;28;20228;-92
2021/05/30 08:50:37;;;;;;;4.97;3.37;;;12.10;99.90;;;;;;5025481;28;20201;-92
2021/05/30 08:53:09;;;;;;;3.93;2.63;;;12.10;99.90;;;;;;5034545;28;20246;-92
2021/05/30 08:55:39;;;;;;;3.60;2.10;;;12.10;99.90;;;;;;5038203;28;20201;-92
2021/05/30 08:58:11;;;;;;;4.97;2.07;;;12.00;99.90;;;;;;5038784;28;20233;-92
2021/05/30 09:00:42;;;;;;;7.00;2.27;;;12.00;99.90;;;;;;5029160;28;20246;-92
2021/05/30 09:03:14;;;;;;;3.20;2.07;;;11.90;99.90;;;;;;5019164;28;20198;-92
2021/05/30 09:05:46;;;;;;;2.13;1.70;;;11.90;99.90;;;;;;5017315;28;20214;-92
2021/05/30 09:08:31;;;;;;;2.90;2.10;;;11.90;99.90;;;;;;4999903;28;20297;-92
2021/05/30 09:11:03;;;;;;;1.80;1.70;;;11.90;99.90;;;;;;4999393;28;20393;-92
2021/05/30 09:13:38;;;;;;;2.60;2.00;;;11.80;99.90;;;;;;4982692;28;20370;-92
2021/05/30 09:16:10;;;;;;;4.20;1.93;;;11.80;99.90;;;;;;4998624;28;20297;-92
2021/05/30 09:18:54;;;;;;;2.53;1.70;;;11.70;99.90;;;;;;5006390;28;20205;-92
2021/05/30 09:21:25;;;;;;;2.30;1.97;;;11.70;99.90;;;;;;5017464;28;20600;-93
2021/05/30 09:23:56;;;;;;;3.07;1.80;;;11.70;99.90;;;;;;5017904;28;20308;-92
2021/05/30 09:26:27;;;;;;;2.40;1.93;;;11.70;99.90;;;;;;5018300;28;20206;-92
2021/05/30 09:29:07;;;;;;;4.17;2.00;;;11.60;99.90;;;;;;5019048;28;20211;-93
2021/05/30 09:31:54;;;;;;;2.33;1.90;;;11.50;99.90;;;;;;5024968;28;20309;-93
2021/05/30 09:34:31;;;;;;;2.30;1.50;;;11.50;99.90;;;;;;5038116;28;20229;-91
2021/05/30 09:37:03;;;;;;;5.90;2.03;;;11.50;99.90;;;;;;5037645;28;20217;-92
2021/05/30 09:39:37;;;;;;;2.93;1.80;;;11.50;99.90;;;;;;5025200;28;20213;-92
2021/05/30 09:42:26;;;;;;;2.43;1.53;;;11.50;99.90;;;;;;5020431;28;20205;-92
2021/05/30 09:44:58;;;;;;;2.20;2.00;;;11.50;99.90;;;;;;5018230;28;20223;-91
2021/05/30 09:47:36;;;;;;;2.00;1.80;;;11.40;99.90;;;;;;5013307;28;20289;-91
2021/05/30 09:50:10;;;;;;;3.00;1.70;;;11.50;99.90;;;;;;5017973;28;20625;-91
2021/05/30 09:52:41;;;;;;;2.37;1.70;;;11.40;99.90;;;;;;5016186;28;20239;-92
2021/05/30 09:55:16;;;;;;;2.33;2.03;;;11.40;99.90;;;;;;5015843;28;20279;-92
2021/05/30 09:58:06;;;;;;;2.97;1.70;;;11.40;99.90;;;;;;5016568;28;20247;-92
2021/05/30 10:00:37;;;;;;;2.67;1.93;;;11.30;99.90;;;;;;5017528;28;20277;-92
2021/05/30 10:03:08;;;;;;;2.63;2.13;;;11.30;99.90;;;;;;5017030;28;20634;-92
2021/05/30 10:05:41;;;;;;;2.23;1.70;;;11.20;99.90;;;;;;5000652;28;20229;-92
2021/05/30 10:08:16;;;;;;;2.27;1.77;;;11.30;99.90;;;;;;5019946;28;20204;-90
2021/05/30 10:10:47;;;;;;;3.50;2.03;;;11.30;99.90;;;;;;5032347;28;20217;-92
2021/05/30 10:13:17;;;;;;;2.80;1.80;;;11.20;99.90;;;;;;5017127;28;20297;-92
2021/05/30 10:15:48;;;;;;;2.33;1.90;;;11.20;99.90;;;;;;5016152;28;20237;-92
2021/05/30 10:18:23;;;;;;;2.43;2.07;;;11.20;99.90;;;;;;5017035;28;20214;-92
2021/05/30 10:20:56;;;;;;;3.40;2.03;;;11.20;99.90;;;;;;5021841;28;20271;-92
2021/05/30 10:23:28;;;;;;;2.33;2.13;;;11.20;99.90;;;;;;5026599;28;20297;-92
2021/05/30 10:26:15;;;;;;;2.63;2.20;;;11.20;99.90;;;;;;5025586;28;20230;-92
2021/05/30 10:28:52;;;;;;;4.10;1.83;;;11.10;99.90;;;;;;5016929;28;20232;-92
2021/05/30 10:31:25;;;;;;;3.77;2.23;;;11.10;99.90;;;;;;5017071;28;20272;-93
2021/05/30 10:34:23;;;;;;;2.20;1.83;;;11.10;99.90;;;;;;5014148;28;20213;-93
2021/05/30 10:37:27;;;;;;;2.20;1.87;;;11.10;99.90;;;;;;5010376;28;20213;-93
2021/05/30 10:40:02;;;;;;;2.93;1.63;;;11.10;99.90;;;;;;4995258;28;20317;-93
2021/05/30 10:42:33;;;;;;;3.47;1.90;;;11.10;99.90;;;;;;5013674;28;20260;-93
2021/05/30 10:45:07;;;;;;;2.97;2.13;;;11.10;99.90;;;;;;5015469;28;20293;-92
2021/05/30 10:48:10;;;;;;;1.80;1.70;;;11.10;99.90;;;;;;5016235;28;20310;-92
2021/05/30 10:50:51;;;;;;;2.60;1.90;;;11.10;99.90;;;;;;4955382;29;20278;-92
2021/05/30 10:53:37;;;;;;;2.13;1.60;;;11.10;99.90;;;;;;5010367;28;20210;-92
2021/05/30 10:56:29;;;;;;;2.40;1.90;;;11.20;99.90;;;;;;5003179;28;20209;-92
2021/05/30 10:59:28;;;;;;;2.30;1.60;;;11.20;99.90;;;;;;5015734;28;20256;-93
2021/05/30 11:02:01;;;;;;;3.30;1.67;;;11.20;99.90;;;;;;4972076;28;20265;-92
2021/05/30 11:04:37;;;;;;;3.87;1.77;;;11.20;99.90;;;;;;5014838;28;20272;-92
2021/05/30 11:07:41;;;;;;;3.07;1.73;;;11.20;99.90;;;;;;5016245;28;20292;-92
2021/05/30 11:10:18;;;;;;;3.70;1.60;;;11.20;99.90;;;;;;5015398;28;20786;-92
2021/05/30 11:13:02;;;;;;;2.77;1.90;;;11.20;99.90;;;;;;5015978;28;20223;-92
2021/05/30 11:15:38;;;;;;;2.90;1.90;;;11.20;99.90;;;;;;5015113;28;20297;-93
2021/05/30 11:18:19;;;;;;;2.60;1.60;;;11.10;99.90;;;;;;5016001;28;20216;-93
2021/05/30 11:20:49;;;;;;;2.13;1.50;;;11.20;99.90;;;;;;5015326;28;20233;-93
2021/05/30 11:23:21;;;;;;;1.97;1.70;;;11.10;99.90;;;;;;5015554;28;20288;-92
2021/05/30 11:25:55;;;;;;;2.43;1.70;;;11.10;99.90;;;;;;4997391;28;20706;-93
2021/05/30 11:28:30;;;;;;;2.83;1.97;;;11.10;99.90;;;;;;5015576;28;20218;-93
2021/05/30 11:31:02;;;;;;;2.17;1.80;;;11.10;99.90;;;;;;5006497;28;20210;-93
2021/05/30 11:33:41;;;;;;;3.53;1.70;;;11.10;99.90;;;;;;4995673;28;20238;-93
2021/05/30 11:36:14;;;;;;;2.20;1.80;;;11.00;99.90;;;;;;5015390;28;20303;-93
2021/05/30 11:38:51;;;;;;;3.53;1.90;;;11.00;99.90;;;;;;5015400;28;20233;-93
2021/05/30 11:41:24;;;;;;;2.93;2.00;;;11.00;99.90;;;;;;5015021;28;20728;-93
2021/05/30 11:44:14;;;;;;;2.90;1.80;;;11.00;99.90;;;;;;5014464;28;20664;-92
2021/05/30 11:46:49;;;;;;;2.20;1.77;;;11.00;99.90;;;;;;5005572;28;20241;-92
2021/05/30 11:49:21;;;;;;;2.60;2.10;;;11.00;99.90;;;;;;5019681;28;20197;-92
2021/05/30 11:52:04;;;;;;;6.03;2.20;;;11.00;99.90;;;;;;5035449;28;20197;-93
2021/05/30 11:54:36;;;;;;;3.17;1.57;;;11.00;99.90;;;;;;5032893;28;20197;-92
2021/05/30 11:57:08;;;;;;;2.10;1.80;;;11.00;99.90;;;;;;5006067;28;20202;-92
2021/05/30 11:59:44;;;;;;;3.77;2.00;;;11.00;99.90;;;;;;5003605;28;20303;-92
2021/05/30 12:02:29;;;;;;;2.43;1.87;;;11.00;99.90;;;;;;5015045;28;20247;-93
2021/05/30 12:05:01;;;;;;;3.00;1.60;;;10.90;99.90;;;;;;5014504;28;20265;-92
2021/05/30 12:07:32;;;;;;;2.07;1.87;;;10.90;99.90;;;;;;4998060;28;20248;-92
2021/05/30 12:10:05;;;;;;;2.50;2.03;;;10.90;99.90;;;;;;5014486;28;20244;-92
2021/05/30 12:12:37;;;;;;;3.23;2.17;;;10.90;99.90;;;;;;5015164;28;20723;-92
2021/05/30 12:15:14;;;;;;;3.53;1.67;;;11.00;99.90;;;;;;5012789;28;20221;-93
2021/05/30 12:17:59;;;;;;;2.67;1.90;;;11.00;99.90;;;;;;5015277;28;20642;-93
2021/05/30 12:20:32;;;;;;;2.00;1.63;;;11.00;99.90;;;;;;4998552;28;20237;-93
2021/05/30 12:23:11;;;;;;;2.43;1.83;;;11.10;99.90;;;;;;5015377;28;20214;-93
2021/05/30 12:25:53;;;;;;;3.83;2.07;;;11.10;99.90;;;;;;5014530;28;20209;-93
2021/05/30 12:28:25;;;;;;;4.43;2.30;;;11.10;99.90;;;;;;5001090;28;20557;-92
2021/05/30 12:30:57;;;;;;;4.80;1.87;;;11.10;99.90;;;;;;4999035;28;20214;-93
2021/05/30 12:33:28;;;;;;;2.70;2.03;;;11.20;99.90;;;;;;5016871;28;20237;-90
2021/05/30 12:35:58;;;;;;;3.17;2.10;;;11.20;99.90;;;;;;5024945;28;20228;-90
2021/05/30 12:38:31;;;;;;;2.33;1.83;;;11.10;99.90;;;;;;5000849;28;20209;-92
2021/05/30 12:41:03;;;;;;;2.97;2.03;;;11.20;99.90;;;;;;5017249;28;20233;-91
2021/05/30 12:43:38;;;;;;;2.40;1.60;;;11.30;99.90;;;;;;5028045;28;20210;-91
2021/05/30 12:46:11;;;;;;;2.20;1.87;;;11.30;99.90;;;;;;5020550;28;20221;-92
2021/05/30 12:48:44;;;;;;;2.00;1.60;;;11.40;99.90;;;;;;5017895;28;20248;-91
2021/05/30 12:51:22;;;;;;;4.40;2.17;;;11.40;99.90;;;;;;5016304;28;20221;-92
2021/05/30 12:53:53;;;;;;;2.37;1.93;;;11.50;99.90;;;;;;5015658;28;20276;-91
2021/05/30 12:56:25;;;;;;;1.80;1.70;;;11.50;99.90;;;;;;5006264;28;20232;-92
2021/05/30 12:59:13;;;;;;;2.40;1.57;;;11.50;99.90;;;;;;5010807;28;20328;-92
2021/05/30 13:01:46;;;;;;;4.17;1.87;;;11.50;99.90;;;;;;5028348;28;20257;-92
2021/05/30 13:04:40;;;;;;;2.10;1.60;;;11.50;99.90;;;;;;5025582;28;20224;-93
2021/05/30 13:07:11;;;;;;;5.87;1.90;;;11.60;99.90;;;;;;5018227;28;20272;-92
2021/05/30 13:09:53;;;;;;;3.43;2.10;;;11.60;99.90;;;;;;4998360;28;20293;-92
2021/05/30 13:12:37;;;;;;;2.37;1.80;;;11.60;99.90;;;;;;4998562;28;20251;-92
2021/05/30 13:15:28;;;;;;;3.13;2.20;;;11.70;99.90;;;;;;4997440;28;20293;-93
2021/05/30 13:18:12;;;;;;;3.93;2.00;;;11.70;99.90;;;;;;5010790;28;20213;-93
2021/05/30 13:20:46;;;;;;;6.13;2.00;;;11.70;99.90;;;;;;5017393;28;20679;-93
2021/05/30 13:23:26;;;;;;;3.37;1.97;;;11.90;99.90;;;;;;5017691;28;20209;-93
2021/05/30 13:26:09;;;;;;;3.13;1.90;;;11.90;99.90;;;;;;5008320;28;20237;-92
2021/05/30 13:28:42;;;;;;;4.33;2.17;;;11.80;99.90;;;;;;4998219;28;20348;-92
2021/05/30 13:31:15;;;;;;;4.33;2.50;;;11.80;99.90;;;;;;5016357;28;20219;-93
2021/05/30 13:33:52;;;;;;;2.47;1.80;;;11.90;99.90;;;;;;5016759;28;20624;-94
2021/05/30 13:36:24;;;;;;;2.80;1.60;;;11.90;99.90;;;;;;5017436;28;20213;-93
2021/05/30 13:38:55;;;;;;;4.20;2.10;;;11.90;99.90;;;;;;5018110;28;20652;-93
2021/05/30 13:41:26;;;;;;;2.87;2.00;;;11.90;99.90;;;;;;5017100;28;20284;-92
2021/05/30 13:43:58;;;;;;;3.27;2.07;;;12.00;99.90;;;;;;5017020;28;20260;-93
2021/05/30 13:46:29;;;;;;;3.20;2.13;;;12.00;99.90;;;;;;5017227;28;20726;-93
2021/05/30 13:49:01;;;;;;;2.40;1.73;;;12.10;99.90;;;;;;5017583;28;20216;-93
2021/05/30 13:51:32;;;;;;;4.67;2.10;;;12.10;99.90;;;;;;5017377;28;20296;-93
2021/05/30 13:54:05;;;;;;;3.50;1.93;;;12.20;99.90;;;;;;5016827;28;20576;-93
2021/05/30 13:56:36;;;;;;;2.33;1.90;;;12.30;99.90;;;;;;5017123;28;20214;-93
2021/05/30 13:59:11;;;;;;;3.23;1.83;;;12.40;99.90;;;;;;5017867;28;20293;-93
2021/05/30 14:01:43;;;;;;;5.10;1.80;;;12.40;99.90;;;;;;5000940;28;20312;-93
2021/05/30 14:04:16;;;;;;;4.33;1.90;;;12.50;99.90;;;;;;5017876;28;20237;-93
2021/05/30 14:06:47;;;;;;;4.67;1.90;;;12.50;99.90;;;;;;5019544;28;20209;-94
2021/05/30 14:09:17;;;;;;;3.80;2.10;;;12.50;99.90;;;;;;5037904;28;20225;-94
2021/05/30 14:11:48;;;;;;;2.83;1.90;;;12.50;99.90;;;;;;5035767;28;20197;-94
2021/05/30 14:14:18;;;;;;;6.10;2.00;;;12.70;99.90;;;;;;5029870;28;20206;-93
2021/05/30 14:17:09;;;;;;;5.43;1.80;;;12.80;99.90;;;;;;5035188;28;20192;-93
2021/05/30 14:19:42;;;;;;;2.43;1.80;;;12.90;99.90;;;;;;5019652;28;20194;-92
2021/05/30 14:22:12;;;;;;;4.07;2.00;;;12.90;99.90;;;;;;5037877;28;20237;-93
2021/05/30 14:24:43;;;;;;;3.40;1.93;;;12.90;99.90;;;;;;5037792;28;20212;-92
2021/05/30 14:27:13;;;;;;;1.70;1.40;;;12.90;99.90;;;;;;5027219;28;20202;-93
2021/05/30 14:29:44;;;;;;;3.87;1.67;;;12.90;99.90;;;;;;5037429;28;20232;-93
2021/05/30 14:32:14;;;;;;;3.13;1.70;;;12.90;99.90;;;;;;5037948;28;20197;-94
2021/05/30 14:34:47;;;;;;;2.13;1.93;;;13.10;99.90;;;;;;5020289;28;20186;-93
2021/05/30 14:37:18;;;;;;;4.60;2.40;;;13.20;99.90;;;;;;5037972;28;20197;-93
2021/05/30 14:39:49;;;;;;;4.37;1.60;;;13.50;99.90;;;;;;5009056;28;20225;-93
2021/05/30 14:42:19;;;;;;;2.67;2.03;;;13.90;99.90;;;;;;5008029;28;20238;-93
2021/05/30 14:44:50;;;;;;;3.00;1.80;;;14.50;99.90;;;;;;4984611;28;20233;-92
2021/05/30 14:47:21;;;;;;;4.53;2.00;;;15.20;99.90;;;;;;5017428;28;20213;-93
2021/05/30 14:49:54;;;;;;;2.70;1.83;;;15.70;99.90;;;;;;5016073;28;20205;-93
2021/05/30 14:52:24;;;;;;;2.70;1.87;;;16.10;99.90;;;;;;5015987;28;20252;-93